Cape Charles, Virginia
Current Conditions -  °F | °C
As of 11:58 PM on Friday 28 Nov 2014 (Local Time) from KLFI Reporting Station
Clear Clear  
Wind Chill: 29°   Ceiling: Unl
Heat Index: 29°   Visibility: 10mi
Dew Point: 26°   Wind: 0mph
Humidity: 91%   Direction: NA
Pressure: 30.31"   Gusts: NA
Location:  37.27°N, 76.02°W
Report Text: KLFI 290458Z AUTO 00000KT 10SM CLR M02/M03 A3031 RMK AO2 SLP271 T10191032 400631024 $
Loading
Personal Weather Stations






























Interactive Weather Map New forecast layout! Learn more

10-Day Weather Forecast

Advertisements
Track Severe Weather on mobile